首页
METAR-TAF:

METAR-TAF

机场 :

霍夫, 德国

纬度: 50-19N, 经度: 011-53E, 海拔: 567米

当前天气观测

该预报发布于39分钟前的05:20 UTC
风速14节,风向南转西南
温度 2°C
湿度 87%
气压 1014 hPa
能见度10公里或以上
阴天层高于1200英尺

METAR: EDQM 190520Z 20014KT 9999 OVC012 02/00 Q1014

时间: 06:59 (05:59 UTC)

预报

该预报发布于12小时和59分钟前的17:00 UTC
预报有效从18日的 18点(UTC)到 19日的 03点(UTC)
风速12节,风向西南
能见度10公里或以上
多云层高于3000英尺

TAF: EDQM 181700Z 1818/1903 22012KT 9999 BKN030

超过4000个机场的气象观测和天气预报(METAR&TAF报告)。

可查询的气象台以黄色和红色小点在地图上表示。

将鼠标移到小点上方,可查看气象台名称。

然后点击查看天气观测和预报。

如需切换地图:点击带黑十字的绿色按钮放大地图;点击带横线的绿色按钮缩小地图;或者点击绿色箭头查看邻近地区的地图。


METAR-TAF: